»·PEaware :: PH-TIM KPSP-KTNP

PH-TIM :: KPSP-KTNP

FLIGHT INFORMATION

Flight Status: Arrived
Operator: Privately registered:
Netherlands
More flights under this callsign
Pilot: Tim P. (6337)
Aircraft: CESSNA 172 SKYHAWK
(C172)
More flights by this aircraft type
Origin: KPSP Palm Springs Intl
United States
Destination: KTNP Twentynine Palms
United States
More flights between these airports :: More routes between these airports
Route: CATH1 PSP V370 TNP
File this flight plan on PilotEdge
Remarks:
Altitude:
(Current/Filed)
9,000ft
Speed:
(Current/Filed)
105kts
Departed: 23-Aug-18 10:28 AM
Arrived: 23-Aug-18 11:18 AM
Distance/Time
Traveled:
34nm/0:50
Distance/Time
To Go:
Arrived

Flight Plot

Page will automatically refresh every two minutes.

Flight plan parsing failed; only flown route is shown


Map Options




Map Legend


Flown Route
Filed Route
Departure Airport
Arrival Airport
Navaid (VOR, NDB)
Fix

Horizontal Profiles

Position Reports

Time Latitude Longitude Heading Altitude Ground
Speed
23-Aug-18 10:05 33.823342 -116.497520 52 481ft 0kts
23-Aug-18 10:06 33.823342 -116.497520 52 481ft 0kts
23-Aug-18 10:07 33.823342 -116.497520 52 481ft 0kts
23-Aug-18 10:08 33.823342 -116.497520 52 481ft 0kts
23-Aug-18 10:09 33.823342 -116.497520 52 481ft 0kts
23-Aug-18 10:10 33.823342 -116.497520 52 481ft 0kts
23-Aug-18 10:11 33.823342 -116.497520 52 481ft 0kts
23-Aug-18 10:12 33.823342 -116.497520 52 481ft 0kts
23-Aug-18 10:13 33.823342 -116.497520 52 481ft 0kts
23-Aug-18 10:14 33.823342 -116.497520 52 481ft 0kts
23-Aug-18 10:15 33.823342 -116.497520 52 481ft 0kts
23-Aug-18 10:16 33.823342 -116.497519 52 481ft 0kts
23-Aug-18 10:17 33.823342 -116.497519 52 481ft 0kts
23-Aug-18 10:18 33.823342 -116.497519 52 481ft 0kts
23-Aug-18 10:19 33.823342 -116.497519 52 481ft 0kts
23-Aug-18 10:20 33.823342 -116.497519 52 481ft 0kts
23-Aug-18 10:21 33.823342 -116.497519 52 481ft 0kts
23-Aug-18 10:22 33.823342 -116.497519 52 481ft 0kts
23-Aug-18 10:23 33.823342 -116.497519 52 481ft 0kts
23-Aug-18 10:24 33.823342 -116.497519 52 481ft 0kts
23-Aug-18 10:25 33.823624 -116.497530 322 481ft 5kts
23-Aug-18 10:26 33.824808 -116.499237 250 481ft 7kts
23-Aug-18 10:27 33.824620 -116.499581 231 481ft 0kts
23-Aug-18 10:28 33.824620 -116.499581 231 481ft 0kts
23-Aug-18 10:29 33.829015 -116.504169 327 534ft 73kts
23-Aug-18 10:30 33.845324 -116.521333 319 1253ft 79kts
23-Aug-18 10:31 33.860476 -116.541060 316 1939ft 81kts
23-Aug-18 10:32 33.875423 -116.561248 323 2562ft 83kts
23-Aug-18 10:33 33.889855 -116.582400 306 3178ft 84kts
23-Aug-18 10:34 33.905763 -116.597113 39 3708ft 80kts
23-Aug-18 10:35 33.900308 -116.572224 111 4260ft 83kts
23-Aug-18 10:36 33.891345 -116.546672 110 4758ft 84kts
23-Aug-18 10:37 33.884666 -116.520053 102 5239ft 82kts
23-Aug-18 10:38 33.878454 -116.493240 97 5681ft 82kts
23-Aug-18 10:39 33.873378 -116.465832 97 6113ft 82kts
23-Aug-18 10:40 33.877504 -116.439420 79 6495ft 84kts
23-Aug-18 10:41 33.885598 -116.414227 66 6933ft 80kts
23-Aug-18 10:42 33.893462 -116.389221 65 7347ft 79kts
23-Aug-18 10:43 33.902744 -116.365293 61 7746ft 78kts
23-Aug-18 10:44 33.911970 -116.342102 61 8127ft 72kts
23-Aug-18 10:45 33.919657 -116.320590 62 8510ft 65kts
23-Aug-18 10:46 33.927018 -116.299799 66 8795ft 70kts
23-Aug-18 10:47 33.933647 -116.277428 66 9066ft 82kts
23-Aug-18 10:48 33.943794 -116.248080 60 9144ft 99kts
23-Aug-18 10:49 33.957201 -116.216623 62 9016ft 104kts
23-Aug-18 10:50 33.968318 -116.185510 70 8902ft 102kts
23-Aug-18 10:51 33.977567 -116.153564 67 8989ft 104kts
23-Aug-18 10:52 33.988022 -116.120466 65 9022ft 106kts
23-Aug-18 10:53 33.999584 -116.087763 67 9049ft 107kts
23-Aug-18 10:54 34.010838 -116.054403 67 9075ft 107kts
23-Aug-18 10:55 34.023373 -116.021310 60 9063ft 109kts
23-Aug-18 10:56 34.037499 -115.988888 59 9039ft 108kts
23-Aug-18 10:57 34.048434 -115.954576 77 9015ft 109kts
23-Aug-18 10:58 34.057513 -115.919461 64 8975ft 110kts
23-Aug-18 10:59 34.071157 -115.886710 67 8947ft 109kts
23-Aug-18 11:00 34.082814 -115.852992 67 8990ft 105kts
23-Aug-18 11:01 34.093019 -115.820362 62 8945ft 113kts
23-Aug-18 11:02 34.107317 -115.784994 65 8443ft 120kts
23-Aug-18 11:03 34.109787 -115.745454 92 7929ft 119kts
23-Aug-18 11:04 34.106977 -115.706343 87 7383ft 118kts
23-Aug-18 11:05 34.105782 -115.667187 91 6854ft 115kts
23-Aug-18 11:06 34.102946 -115.627605 91 6384ft 120kts
23-Aug-18 11:07 34.088703 -115.592790 124 6216ft 116kts
23-Aug-18 11:08 34.081043 -115.562562 29 6143ft 107kts
23-Aug-18 11:09 34.099737 -115.584546 281 6156ft 114kts
23-Aug-18 11:10 34.103543 -115.622290 279 6107ft 112kts
23-Aug-18 11:11 34.108425 -115.661065 281 5555ft 118kts
23-Aug-18 11:12 34.112909 -115.701192 279 4972ft 123kts
23-Aug-18 11:13 34.116187 -115.741454 275 4551ft 116kts
23-Aug-18 11:14 34.121179 -115.781002 282 4067ft 120kts
23-Aug-18 11:15 34.124435 -115.820939 276 3965ft 118kts
23-Aug-18 11:16 34.130221 -115.859938 290 3506ft 119kts
23-Aug-18 11:17 34.134588 -115.898691 272 2395ft 116kts
23-Aug-18 11:18 34.134444 -115.927884 274 1900ft 70kts
23-Aug-18 11:19 34.134729 -115.941545 358 1815ft 8kts
23-Aug-18 11:20 34.136015 -115.942423 204 1817ft 3kts
23-Aug-18 11:21 34.135982 -115.942105 0 1815ft 0kts
23-Aug-18 11:22 34.135982 -115.942105 0 1815ft 0kts

Navigation Log

Ident Type
Flight plan parsing failed, navigation log unavailable